Time;durP1;ratioP1;P1;durP2;ratioP2;P2;SDS_P1;SDS_P2;PMS_P1;PMS_P2;Temp;Humidity;BMP_temperature;BMP_pressure;BME280_temperature;BME280_humidity;BME280_pressure;Samples;Min_cycle;Max_cycle;Signal;HPM_P1;HPM_P2
2022/09/13 05:01:38;;;;;;;3.55;2.10;;;14.40;99.90;;;;;;6100842;23;21236;31
2022/09/13 05:04:06;;;;;;;5.43;2.97;;;14.40;99.90;;;;;;6134528;23;20282;-74
2022/09/13 05:06:31;;;;;;;5.50;2.30;;;14.40;99.90;;;;;;6136180;23;20005;-76
2022/09/13 05:08:57;;;;;;;4.88;2.50;;;14.40;99.90;;;;;;6135105;23;20397;-73
2022/09/13 05:11:26;;;;;;;5.43;2.20;;;14.40;99.90;;;;;;6135748;23;20009;-75
2022/09/13 05:13:54;;;;;;;;;;;14.40;99.90;;;;;;6110970;23;20283;-73
2022/09/13 05:16:24;;;;;;;4.00;2.30;;;14.40;99.90;;;;;;6109541;23;19905;-73
2022/09/13 05:18:50;;;;;;;5.78;2.47;;;14.40;99.90;;;;;;6109733;23;20417;-73
2022/09/13 05:21:17;;;;;;;5.57;2.63;;;14.40;99.90;;;;;;6135272;23;20028;-73
2022/09/13 05:23:43;;;;;;;5.90;2.80;;;14.40;99.90;;;;;;6136031;23;20044;-74
2022/09/13 05:26:09;;;;;;;5.70;2.60;;;14.40;99.90;;;;;;6136299;23;20013;-75
2022/09/13 05:28:36;;;;;;;4.93;2.42;;;14.40;99.90;;;;;;6135524;23;20006;-75
2022/09/13 05:31:07;;;;;;;5.72;2.75;;;14.50;99.90;;;;;;6135431;23;20002;-74
2022/09/13 05:33:35;;;;;;;4.63;2.35;;;14.50;99.90;;;;;;6135565;23;20002;-74
2022/09/13 05:36:02;;;;;;;5.47;2.60;;;14.50;99.90;;;;;;6134648;23;20197;-74
2022/09/13 05:38:28;;;;;;;9.20;2.58;;;14.50;99.90;;;;;;6135515;23;20002;-74
2022/09/13 05:40:55;;;;;;;5.43;2.58;;;14.50;99.90;;;;;;6135792;23;19998;-74
2022/09/13 05:43:22;;;;;;;4.50;2.55;;;14.50;99.90;;;;;;6135053;23;20002;-74
2022/09/13 05:45:48;;;;;;;3.80;2.10;;;14.50;99.90;;;;;;6109951;23;20172;-75
2022/09/13 05:48:14;;;;;;;5.30;2.30;;;14.50;99.90;;;;;;6134998;23;20061;-77
2022/09/13 05:50:40;;;;;;;4.35;2.15;;;14.50;99.90;;;;;;6135747;23;19994;-80
2022/09/13 05:53:08;;;;;;;3.90;2.40;;;14.60;99.90;;;;;;6085597;23;20006;-76
2022/09/13 05:55:34;;;;;;;6.32;2.80;;;14.60;99.90;;;;;;6135152;23;20006;-76
2022/09/13 05:58:02;;;;;;;6.40;2.45;;;14.60;99.90;;;;;;6134652;23;20279;-77
2022/09/13 06:00:28;;;;;;;;;;;14.80;99.90;;;;;;6135977;23;20024;-74
2022/09/13 06:02:55;;;;;;;6.00;2.90;;;14.90;99.90;;;;;;6155953;23;19913;-75
2022/09/13 06:05:21;;;;;;;4.53;2.80;;;14.90;99.90;;;;;;6164389;23;20006;-75
2022/09/13 06:07:46;;;;;;;6.93;2.97;;;15.10;99.90;;;;;;6137251;23;20073;-75
2022/09/13 06:10:12;;;;;;;8.43;2.55;;;15.20;99.90;;;;;;6162666;23;20002;-75
2022/09/13 06:12:39;;;;;;;5.93;3.05;;;15.30;99.90;;;;;;6138677;23;20012;-76
2022/09/13 06:15:05;;;;;;;6.72;3.00;;;15.40;99.90;;;;;;6167033;23;20007;-76
2022/09/13 06:17:34;;;;;;;5.88;2.55;;;15.50;99.90;;;;;;6162680;23;20326;-75
2022/09/13 06:20:09;;;;;;;4.40;2.40;;;15.50;99.90;;;;;;6163645;23;20021;-75
2022/09/13 06:22:35;;;;;;;5.55;2.53;;;15.60;99.90;;;;;;6137030;23;20338;-75
2022/09/13 06:25:00;;;;;;;3.83;1.92;;;15.60;99.90;;;;;;6137095;23;19997;-76
2022/09/13 06:27:29;;;;;;;5.95;2.42;;;15.60;99.90;;;;;;6163040;23;20080;-75
2022/09/13 06:29:55;;;;;;;7.90;2.88;;;15.50;99.90;;;;;;6163714;23;20023;-75
2022/09/13 06:32:21;;;;;;;7.32;2.90;;;15.50;99.90;;;;;;6162646;23;20375;-75
2022/09/13 06:34:47;;;;;;;6.43;2.65;;;15.40;99.90;;;;;;6163318;23;20001;-75
2022/09/13 06:37:12;;;;;;;8.35;2.80;;;15.30;99.90;;;;;;6162523;23;20516;-76
2022/09/13 06:39:38;;;;;;;6.28;3.00;;;15.30;99.90;;;;;;6162866;23;20052;-75
2022/09/13 06:42:04;;;;;;;5.38;2.53;;;15.30;99.90;;;;;;6162366;23;20028;-75
2022/09/13 06:44:38;;;;;;;6.22;2.88;;;15.20;99.90;;;;;;6163781;23;19989;-76
2022/09/13 06:47:04;;;;;;;5.43;2.63;;;15.30;99.90;;;;;;6136944;23;20376;-76
2022/09/13 06:49:30;;;;;;;5.03;2.50;;;15.30;99.90;;;;;;6162483;23;20005;-75
2022/09/13 06:51:57;;;;;;;9.25;3.65;;;15.40;99.90;;;;;;6162957;23;20001;-75
2022/09/13 06:54:22;;;;;;;7.78;3.28;;;15.50;99.90;;;;;;6162231;23;20001;-76
2022/09/13 06:56:48;;;;;;;4.10;2.58;;;15.60;99.90;;;;;;6163036;23;20006;-75
2022/09/13 06:59:14;;;;;;;5.88;2.55;;;15.80;99.90;;;;;;6136342;23;20017;-76
2022/09/13 07:01:42;;;;;;;9.63;5.30;;;15.90;99.90;;;;;;6136706;23;20001;-76
2022/09/13 07:04:10;;;;;;;8.52;3.90;;;16.00;99.90;;;;;;6162323;23;20001;-78
2022/09/13 07:06:42;;;;;;;6.00;3.45;;;16.10;99.90;;;;;;6163109;23;19997;-76
2022/09/13 07:09:16;;;;;;;8.43;3.60;;;16.20;99.90;;;;;;6162436;23;20191;-76
2022/09/13 07:11:42;;;;;;;7.68;3.15;;;16.40;99.90;;;;;;6163248;23;20017;-76
2022/09/13 07:14:11;;;;;;;6.97;3.50;;;16.60;99.90;;;;;;6162716;23;20382;-75
2022/09/13 07:16:37;;;;;;;10.63;4.35;;;16.80;99.90;;;;;;6162199;23;20020;-76
2022/09/13 07:19:05;;;;;;;15.02;10.07;;;16.90;99.90;;;;;;6162370;23;20318;-76
2022/09/13 07:21:32;;;;;;;8.15;4.68;;;17.00;99.90;;;;;;6163239;23;20008;-76
2022/09/13 07:23:58;;;;;;;6.38;3.63;;;17.10;99.90;;;;;;6162957;23;20044;-76
2022/09/13 07:26:30;;;;;;;6.72;3.30;;;17.10;99.90;;;;;;6162945;23;20012;-76
2022/09/13 07:29:00;;;;;;;8.65;4.95;;;17.10;99.90;;;;;;6162973;23;20025;-78
2022/09/13 07:31:37;;;;;;;6.93;3.70;;;17.20;99.90;;;;;;6162229;23;20310;-76
2022/09/13 07:34:07;;;;;;;8.23;3.85;;;17.30;99.90;;;;;;6136817;23;20009;-75
2022/09/13 07:36:35;;;;;;;5.65;3.40;;;17.30;99.90;;;;;;6136906;23;20174;-78
2022/09/13 07:39:02;;;;;;;5.77;3.10;;;17.30;99.90;;;;;;6162700;23;20020;-79
2022/09/13 07:41:29;;;;;;;6.05;3.10;;;17.30;99.90;;;;;;6162762;23;20004;-76
2022/09/13 07:43:56;;;;;;;8.60;3.45;;;17.50;99.90;;;;;;6136964;23;20073;-75
2022/09/13 07:46:24;;;;;;;5.78;3.22;;;17.60;99.90;;;;;;6162152;23;20056;-76
2022/09/13 07:48:54;;;;;;;;;;;17.70;99.90;;;;;;6163398;23;20002;-75
2022/09/13 07:51:23;;;;;;;9.55;3.28;;;17.70;99.90;;;;;;6136523;23;19900;-75
2022/09/13 07:53:51;;;;;;;13.52;4.32;;;17.90;99.90;;;;;;6162989;23;19996;-79
2022/09/13 07:56:19;;;;;;;9.30;5.30;;;18.20;99.90;;;;;;6136685;23;20001;-75
2022/09/13 07:58:47;;;;;;;6.88;3.08;;;18.50;99.90;;;;;;6137115;23;20064;-76
2022/09/13 08:01:23;;;;;;;7.85;4.53;;;18.90;99.90;;;;;;6162194;23;20029;-75
2022/09/13 08:04:00;;;;;;;7.25;3.25;;;19.30;99.90;;;;;;6162450;23;20012;-75
2022/09/13 08:06:28;;;;;;;6.70;2.70;;;19.70;99.90;;;;;;6137717;23;19997;-75
2022/09/13 08:08:54;;;;;;;6.45;4.18;;;20.00;99.90;;;;;;6164582;23;20005;-75
2022/09/13 08:11:22;;;;;;;8.85;3.53;;;20.20;99.30;;;;;;6164025;23;19998;-75
2022/09/13 08:13:49;;;;;;;8.55;2.55;;;20.20;99.10;;;;;;6138703;23;20080;-75
2022/09/13 08:16:17;;;;;;;6.70;2.97;;;20.40;98.80;;;;;;6164238;23;20009;-76
2022/09/13 08:18:44;;;;;;;;;;;20.80;97.80;;;;;;6139240;23;20072;-78
2022/09/13 08:21:11;;;;;;;5.07;2.50;;;20.90;96.90;;;;;;6137897;23;19972;-77
2022/09/13 08:23:36;;;;;;;9.10;2.55;;;21.00;96.50;;;;;;6164980;23;20001;-75
2022/09/13 08:26:03;;;;;;;5.75;2.72;;;21.10;96.30;;;;;;6139216;23;20056;-76
2022/09/13 08:28:30;;;;;;;4.47;2.60;;;21.00;96.20;;;;;;6137958;23;20001;-75
2022/09/13 08:31:12;;;;;;;7.35;2.58;;;20.90;96.20;;;;;;6164799;23;20012;-77
2022/09/13 08:33:38;;;;;;;7.00;2.45;;;20.90;95.90;;;;;;6164107;23;20048;-75
2022/09/13 08:36:16;;;;;;;7.85;2.45;;;20.90;96.10;;;;;;6138656;23;20001;-75
2022/09/13 08:38:52;;;;;;;6.88;2.70;;;21.00;96.00;;;;;;6163900;23;20020;-75
2022/09/13 08:41:40;;;;;;;10.57;3.10;;;21.10;95.80;;;;;;6163469;23;20008;-75
2022/09/13 08:44:15;;;;;;;4.45;2.58;;;21.30;95.50;;;;;;6137835;23;20025;-77
2022/09/13 08:46:44;;;;;;;9.15;2.70;;;21.50;95.10;;;;;;6163642;23;20053;-74
2022/09/13 08:49:48;;;;;;;6.07;2.40;;;21.80;94.50;;;;;;6163397;23;20021;-75
2022/09/13 08:52:14;;;;;;;4.72;2.53;;;21.90;94.20;;;;;;6085726;23;20002;-74
2022/09/13 08:54:41;;;;;;;4.75;2.38;;;22.10;93.90;;;;;;6164412;23;20008;-77
2022/09/13 08:57:44;;;;;;;4.95;2.20;;;22.20;93.70;;;;;;6163327;23;20001;-76
2022/09/13 09:00:36;;;;;;;7.72;2.78;;;22.30;93.50;;;;;;6152328;23;20072;-74
2022/09/13 09:03:17;;;;;;;6.20;2.50;;;22.50;93.20;;;;;;6144468;23;20029;-75
2022/09/13 09:05:49;;;;;;;9.02;2.17;;;22.50;93.00;;;;;;6134489;23;20055;-75
2022/09/13 09:08:35;;;;;;;8.40;2.42;;;22.80;92.80;;;;;;6106176;23;20006;-76
2022/09/13 09:11:28;;;;;;;5.70;2.53;;;22.90;92.30;;;;;;6134144;23;20101;-76
2022/09/13 09:14:24;;;;;;;6.43;2.05;;;23.10;91.90;;;;;;6080549;23;20010;-75
2022/09/13 09:17:16;;;;;;;6.63;2.10;;;23.30;91.40;;;;;;6124418;23;20114;-74
2022/09/13 09:19:52;;;;;;;8.70;2.72;;;23.50;91.10;;;;;;6133989;23;20002;-75
2022/09/13 09:22:25;;;;;;;7.13;2.17;;;23.40;91.10;;;;;;6133827;23;20311;-75
2022/09/13 09:24:57;;;;;;;7.38;2.20;;;23.40;91.10;;;;;;6132607;23;20033;-76
2022/09/13 09:27:32;;;;;;;6.22;2.08;;;23.70;90.80;;;;;;6107707;23;20053;-76
2022/09/13 09:30:01;;;;;;;7.85;4.30;;;24.20;90.10;;;;;;6132681;23;20002;-76
2022/09/13 09:32:49;;;;;;;12.65;4.55;;;24.40;88.80;;;;;;6107584;23;20539;-76
2022/09/13 09:35:42;;;;;;;8.20;2.55;;;24.60;88.00;;;;;;6133237;23;20069;-75
2022/09/13 09:38:32;;;;;;;7.50;1.90;;;24.70;88.00;;;;;;6133412;23;20235;-76
2022/09/13 09:41:30;;;;;;;6.47;2.22;;;25.20;86.60;;;;;;6084943;23;20006;-76
2022/09/13 09:44:19;;;;;;;5.30;2.03;;;25.60;85.00;;;;;;6110642;23;20279;-76
2022/09/13 09:46:56;;;;;;;4.80;1.77;;;25.90;84.10;;;;;;6109137;23;20010;-76
2022/09/13 09:52:30;;;;;;;6.30;1.60;;;26.50;79.90;;;;;;6107907;23;20314;-76
2022/09/13 09:55:20;;;;;;;13.60;2.28;;;26.80;76.00;;;;;;6133992;23;20006;-75
2022/09/13 09:58:05;;;;;;;7.00;1.88;;;26.70;76.30;;;;;;6133298;23;20006;-75
2022/09/13 10:00:34;;;;;;;14.57;8.70;;;26.80;76.20;;;;;;6107720;23;20006;-76
2022/09/13 10:03:18;;;;;;;11.43;5.72;;;26.90;74.50;;;;;;6151133;23;20005;-75
2022/09/13 10:06:03;;;;;;;7.60;2.00;;;26.90;75.00;;;;;;6137445;23;20009;-74
2022/09/13 10:08:38;;;;;;;2.85;1.50;;;26.90;76.00;;;;;;6163561;23;20085;-76
2022/09/13 10:11:08;;;;;;;6.40;2.08;;;26.90;75.50;;;;;;6137675;23;20005;-76
2022/09/13 10:13:35;;;;;;;3.20;1.27;;;26.70;76.00;;;;;;6137348;23;20240;-76
2022/09/13 10:16:02;;;;;;;7.95;1.50;;;26.60;76.70;;;;;;6163450;23;20198;-75
2022/09/13 10:18:32;;;;;;;3.47;1.00;;;26.60;76.70;;;;;;6163172;23;20206;-76
2022/09/13 10:21:02;;;;;;;3.75;0.90;;;26.40;75.10;;;;;;6163786;23;20201;-75
2022/09/13 10:23:36;;;;;;;5.00;1.13;;;26.30;75.00;;;;;;6137073;23;20001;-80
2022/09/13 10:26:14;;;;;;;2.00;0.93;;;26.20;76.10;;;;;;6134694;23;20068;-76
2022/09/13 10:28:59;;;;;;;4.80;1.20;;;26.20;76.30;;;;;;6162617;23;20001;-77
2022/09/13 10:31:45;;;;;;;3.28;1.02;;;26.30;76.20;;;;;;6137119;23;20187;-76
2022/09/13 10:34:41;;;;;;;3.60;1.77;;;26.30;75.90;;;;;;6162814;23;20056;-76
2022/09/13 10:37:21;;;;;;;4.40;1.40;;;26.30;75.70;;;;;;6161698;23;20028;-76
2022/09/13 10:40:05;;;;;;;12.27;2.53;;;26.40;75.10;;;;;;6163761;23;20090;-76
2022/09/13 10:42:32;;;;;;;7.50;1.80;;;26.60;75.10;;;;;;6161213;23;20006;-76
2022/09/13 10:45:28;;;;;;;5.07;1.33;;;26.90;74.80;;;;;;6135725;23;19993;-74
2022/09/13 10:48:15;;;;;;;4.65;1.30;;;27.30;74.00;;;;;;6136972;23;20258;-77
2022/09/13 10:51:20;;;;;;;7.63;5.15;;;27.70;71.00;;;;;;6137156;23;20005;-78
2022/09/13 10:54:09;;;;;;;4.10;1.30;;;28.00;71.00;;;;;;6163438;23;20001;-77
2022/09/13 10:56:35;;;;;;;8.32;5.88;;;28.20;69.80;;;;;;6162818;23;20009;-76
2022/09/13 10:59:42;;;;;;;9.55;5.82;;;28.50;69.50;;;;;;6112691;23;20009;-73
2022/09/13 11:02:46;;;;;;;1.77;0.80;;;28.70;68.80;;;;;;6136076;23;20025;-76
2022/09/13 11:05:38;;;;;;;8.00;2.78;;;29.00;65.50;;;;;;6161624;23;20005;-78
2022/09/13 11:08:22;;;;;;;6.18;1.25;;;29.90;64.60;;;;;;6163057;23;20259;-75
2022/09/13 11:11:13;;;;;;;8.93;1.70;;;30.50;63.00;;;;;;6137211;23;20008;-77
2022/09/13 11:17:35;;;;;;;5.30;1.30;;;32.50;58.60;;;;;;6162590;23;20020;-76
2022/09/13 11:20:44;;;;;;;2.65;1.23;;;32.40;57.90;;;;;;6134793;23;20014;-75
2022/09/13 11:23:12;;;;;;;3.70;1.27;;;32.20;58.80;;;;;;6108966;23;20044;-75
2022/09/13 11:25:38;;;;;;;2.67;1.20;;;32.00;58.70;;;;;;6162449;23;20005;-75
2022/09/13 11:28:28;;;;;;;5.25;2.28;;;32.00;58.30;;;;;;6162742;23;20298;-74
2022/09/13 11:31:27;;;;;;;3.80;1.40;;;32.30;57.70;;;;;;6162769;23;20009;-75
2022/09/13 11:34:22;;;;;;;3.90;1.80;;;32.70;57.30;;;;;;6136571;23;20002;-74
2022/09/13 11:37:14;;;;;;;2.28;0.60;;;33.60;56.10;;;;;;6163068;23;20006;-76
2022/09/13 11:40:03;;;;;;;2.47;0.70;;;34.30;55.20;;;;;;6164186;23;20017;-75
2022/09/13 11:42:40;;;;;;;4.10;1.80;;;34.80;54.40;;;;;;6165597;23;20048;-75
2022/09/13 11:45:28;;;;;;;4.70;1.90;;;35.00;54.20;;;;;;6139869;23;20013;-74
2022/09/13 11:48:48;;;;;;;4.53;1.77;;;34.20;54.40;;;;;;6164423;23;20005;-74
2022/09/13 11:51:24;;;;;;;5.45;2.53;;;33.80;54.50;;;;;;6130292;23;20032;-74
2022/09/13 11:54:01;;;;;;;8.43;2.17;;;34.20;54.70;;;;;;6163998;23;20060;-74
2022/09/13 11:56:37;;;;;;;3.15;0.90;;;35.20;53.60;;;;;;6162253;23;20127;-74
2022/09/13 11:59:15;;;;;;;5.20;2.75;;;35.60;52.70;;;;;;6164322;23;20006;-73
2022/09/13 12:01:46;;;;;;;3.42;1.10;;;35.90;52.60;;;;;;6137375;23;20005;-77
2022/09/13 12:04:26;;;;;;;2.42;0.73;;;36.50;51.20;;;;;;6138245;23;20009;-74
2022/09/13 12:06:58;;;;;;;1.67;0.63;;;36.80;50.10;;;;;;6164340;23;20016;-76
2022/09/13 12:09:35;;;;;;;3.25;0.80;;;36.80;48.80;;;;;;6163178;23;20115;-74
2022/09/13 12:12:05;;;;;;;3.80;1.23;;;37.10;49.20;;;;;;6163817;23;20010;-73
2022/09/13 12:14:51;;;;;;;3.55;1.30;;;37.70;49.40;;;;;;6163935;23;19998;-73
2022/09/13 12:17:43;;;;;;;2.90;0.70;;;38.40;47.70;;;;;;6163175;23;20006;-74
2022/09/13 12:20:19;;;;;;;6.68;3.60;;;39.10;45.60;;;;;;6163817;23;19998;-74
2022/09/13 12:22:48;;;;;;;3.22;2.92;;;39.60;45.80;;;;;;6139533;23;20056;-75
2022/09/13 12:25:45;;;;;;;3.45;0.90;;;40.40;45.20;;;;;;6114765;23;20013;-74
2022/09/13 12:28:18;;;;;;;3.08;0.70;;;40.50;44.70;;;;;;6139653;23;20076;-74
2022/09/13 12:30:54;;;;;;;1.80;0.50;;;40.40;43.70;;;;;;6165669;23;20002;-74
2022/09/13 12:33:20;;;;;;;1.27;0.40;;;39.30;43.50;;;;;;6165217;23;20012;-73
2022/09/13 12:35:56;;;;;;;4.53;1.13;;;38.10;44.30;;;;;;6165830;23;20001;-74
2022/09/13 12:38:29;;;;;;;1.30;0.43;;;37.70;45.50;;;;;;6165374;23;20307;-74
2022/09/13 12:41:22;;;;;;;1.55;0.60;;;38.10;46.60;;;;;;6165655;23;19998;-74
2022/09/13 12:44:00;;;;;;;1.83;0.30;;;38.50;45.00;;;;;;6165725;23;20299;-74
2022/09/13 12:46:50;;;;;;;1.08;0.43;;;39.10;45.10;;;;;;6165568;23;20017;-74
2022/09/13 12:49:29;;;;;;;4.13;0.82;;;40.20;44.30;;;;;;6165191;23;20005;-74
2022/09/13 12:52:25;;;;;;;0.93;0.30;;;41.00;43.50;;;;;;6164841;23;20001;-75
2022/09/13 12:55:22;;;;;;;1.73;0.50;;;40.90;42.50;;;;;;6164516;23;20001;-73
2022/09/13 12:58:25;;;;;;;1.33;0.50;;;39.30;42.80;;;;;;6164620;23;20001;-74
2022/09/13 13:00:57;;;;;;;5.68;0.57;;;40.30;43.20;;;;;;6154653;23;20001;-75
2022/09/13 13:03:30;;;;;;;1.65;0.47;;;40.80;42.80;;;;;;6163566;23;20009;-74
2022/09/13 13:06:10;;;;;;;3.58;0.70;;;41.50;42.50;;;;;;6163917;23;20083;-74
2022/09/13 13:08:37;;;;;;;2.00;0.50;;;42.10;41.40;;;;;;6113613;23;20351;-75
2022/09/13 13:11:13;;;;;;;1.55;0.40;;;43.40;41.30;;;;;;6164250;23;19989;-73
2022/09/13 13:13:41;;;;;;;1.38;0.50;;;43.80;41.50;;;;;;6163749;23;20025;-73
2022/09/13 13:16:32;;;;;;;2.42;0.40;;;44.20;40.00;;;;;;6164400;23;20283;-75
2022/09/13 13:19:06;;;;;;;3.50;0.40;;;43.20;40.40;;;;;;6164012;23;20009;-75
2022/09/13 13:21:37;;;;;;;1.95;0.60;;;42.00;40.10;;;;;;6163589;23;20246;-75
2022/09/13 13:24:15;;;;;;;2.85;0.98;;;41.70;40.90;;;;;;6163863;23;20235;-75
2022/09/13 13:26:41;;;;;;;1.75;0.40;;;41.30;39.80;;;;;;6163678;23;20005;-74
2022/09/13 13:29:22;;;;;;;3.30;3.00;;;41.60;39.80;;;;;;6137739;23;20002;-73
2022/09/13 13:32:02;;;;;;;2.22;0.45;;;41.30;41.40;;;;;;6164144;23;20005;-74
2022/09/13 13:34:37;;;;;;;2.20;0.70;;;39.90;40.40;;;;;;6137979;23;20005;-74
2022/09/13 13:37:04;;;;;;;1.60;0.60;;;38.60;41.60;;;;;;6164003;23;20183;-74
2022/09/13 13:39:30;;;;;;;2.75;1.23;;;37.60;42.50;;;;;;6163162;23;20006;-74
2022/09/13 13:41:57;;;;;;;2.53;0.80;;;37.10;43.30;;;;;;6163673;23;20189;-74
2022/09/13 13:44:22;;;;;;;1.03;0.50;;;36.70;42.70;;;;;;6137165;23;20002;-74
2022/09/13 13:47:12;;;;;;;1.30;0.50;;;36.60;43.00;;;;;;6163822;23;20005;-74
2022/09/13 13:49:39;;;;;;;1.05;0.30;;;37.20;43.20;;;;;;6162775;23;20061;-74
2022/09/13 13:52:08;;;;;;;1.30;0.50;;;38.90;43.00;;;;;;6163570;23;20009;-74
2022/09/13 13:54:56;;;;;;;0.98;0.28;;;40.30;40.80;;;;;;6137019;23;20288;-74
2022/09/13 13:57:29;;;;;;;2.45;0.80;;;40.70;41.20;;;;;;6133207;23;20006;-75
2022/09/13 14:00:03;;;;;;;3.75;1.05;;;40.00;41.90;;;;;;6161111;23;20001;-75
2022/09/13 14:02:49;;;;;;;1.75;0.60;;;39.30;42.80;;;;;;6161689;23;20021;-74
2022/09/13 14:05:32;;;;;;;4.10;2.00;;;38.40;43.80;;;;;;6163357;23;20009;-74
2022/09/13 14:08:29;;;;;;;2.80;1.00;;;37.90;43.80;;;;;;6137203;23;20295;-74
2022/09/13 14:11:25;;;;;;;2.42;0.68;;;37.40;45.30;;;;;;6163924;23;20065;-74
2022/09/13 14:14:11;;;;;;;2.03;0.45;;;36.80;44.60;;;;;;6163338;23;20016;-75
2022/09/13 14:17:04;;;;;;;2.38;0.60;;;36.80;44.20;;;;;;6131789;23;20005;-75
2022/09/13 14:19:37;;;;;;;2.17;0.50;;;37.50;45.50;;;;;;6162770;23;20006;-75
2022/09/13 14:22:24;;;;;;;3.13;0.40;;;38.10;45.10;;;;;;6163616;23;19997;-75
2022/09/13 14:25:11;;;;;;;1.30;0.50;;;38.00;42.80;;;;;;6113021;23;20012;-74
2022/09/13 14:27:38;;;;;;;2.55;0.40;;;37.10;42.00;;;;;;6162990;23;20321;-74
2022/09/13 14:30:18;;;;;;;1.63;0.22;;;37.90;43.20;;;;;;6163625;23;20216;-74
2022/09/13 14:32:47;;;;;;;7.55;6.35;;;39.10;41.50;;;;;;6162536;23;20008;-74
2022/09/13 14:35:31;;;;;;;2.70;1.77;;;39.10;41.60;;;;;;6163525;23;20044;-74
2022/09/13 14:38:21;;;;;;;1.00;0.40;;;40.10;41.00;;;;;;6163523;23;19997;-74
2022/09/13 14:41:02;;;;;;;1.60;0.45;;;42.70;39.30;;;;;;6163377;23;20020;-74
2022/09/13 14:43:30;;;;;;;1.73;0.38;;;44.40;38.30;;;;;;6162934;23;20048;-74
2022/09/13 14:46:13;;;;;;;1.70;0.50;;;45.40;37.50;;;;;;6162715;23;20019;-75
2022/09/13 14:49:01;;;;;;;1.83;0.80;;;44.20;37.80;;;;;;6162590;23;20037;-74
2022/09/13 14:51:41;;;;;;;2.33;1.23;;;42.50;38.10;;;;;;6112858;23;20313;-75
2022/09/13 14:54:42;;;;;;;3.35;0.90;;;40.80;39.10;;;;;;6163406;23;20004;-73
2022/09/13 14:57:41;;;;;;;2.40;0.47;;;39.40;40.20;;;;;;6149400;23;20065;-73
2022/09/13 15:00:19;;;;;;;2.33;0.60;;;38.30;42.80;;;;;;6129054;23;20016;-74
2022/09/13 15:02:54;;;;;;;7.15;3.53;;;37.60;43.40;;;;;;6162547;23;20112;-74
2022/09/13 15:05:22;;;;;;;3.97;1.20;;;37.00;43.70;;;;;;6161901;23;19998;-74
2022/09/13 15:07:51;;;;;;;7.00;1.08;;;36.20;44.30;;;;;;6163296;23;20005;-75
2022/09/13 15:10:16;;;;;;;3.67;0.60;;;35.70;45.00;;;;;;6162852;23;20006;-74
2022/09/13 15:13:11;;;;;;;8.38;1.33;;;35.40;46.70;;;;;;6162719;23;20017;-76
2022/09/13 15:15:44;;;;;;;5.30;0.88;;;35.40;45.70;;;;;;6160121;23;20218;-75
2022/09/13 15:18:19;;;;;;;3.65;0.90;;;35.40;46.00;;;;;;6162925;23;20033;-74
2022/09/13 15:21:00;;;;;;;2.75;0.43;;;35.20;45.80;;;;;;6162775;23;19997;-74
2022/09/13 15:23:38;;;;;;;2.88;0.80;;;35.00;46.40;;;;;;6112869;23;20009;-75
2022/09/13 15:26:19;;;;;;;2.42;0.45;;;34.70;47.30;;;;;;6138093;23;20187;-73
2022/09/13 15:28:55;;;;;;;1.38;0.47;;;34.60;47.10;;;;;;6163866;23;20127;-73
2022/09/13 15:31:29;;;;;;;1.00;0.40;;;34.40;48.10;;;;;;6163994;23;20009;-73
2022/09/13 15:34:16;;;;;;;2.20;0.60;;;34.20;47.50;;;;;;6163993;23;20021;-73
2022/09/13 15:36:42;;;;;;;2.70;1.20;;;33.90;48.30;;;;;;6136874;23;20009;-73
2022/09/13 15:39:12;;;;;;;3.03;0.60;;;33.50;48.10;;;;;;6164028;23;20017;-73
2022/09/13 15:41:54;;;;;;;0.70;0.30;;;33.10;49.60;;;;;;6162953;23;20028;-74
2022/09/13 15:44:25;;;;;;;2.88;0.65;;;32.60;49.70;;;;;;6164457;23;20051;-73
2022/09/13 15:47:05;;;;;;;1.23;0.50;;;32.40;50.30;;;;;;6163701;23;20002;-73
2022/09/13 15:49:34;;;;;;;1.70;0.73;;;32.20;50.70;;;;;;6163586;23;20009;-73
2022/09/13 15:52:03;;;;;;;1.33;0.60;;;32.00;50.20;;;;;;6137606;23;20199;-73
2022/09/13 15:54:37;;;;;;;2.10;0.57;;;31.70;51.50;;;;;;6163697;23;20016;-74
2022/09/13 15:57:15;;;;;;;2.90;1.02;;;31.50;52.00;;;;;;6137693;23;20060;-74
2022/09/13 15:59:44;;;;;;;1.80;0.50;;;31.40;51.50;;;;;;6163360;23;20012;-74
2022/09/13 16:02:36;;;;;;;1.33;0.47;;;31.20;51.00;;;;;;6137527;23;20199;-76
2022/09/13 16:05:02;;;;;;;4.38;1.23;;;30.90;51.80;;;;;;6161608;23;20013;-74
2022/09/13 16:07:27;;;;;;;1.65;0.40;;;30.70;52.70;;;;;;6163283;23;20005;-74
2022/09/13 16:09:53;;;;;;;2.80;0.80;;;30.50;51.90;;;;;;6138153;23;20033;-74
2022/09/13 16:12:23;;;;;;;3.60;0.88;;;30.20;53.40;;;;;;6164245;23;20017;-74
2022/09/13 16:14:48;;;;;;;10.05;7.68;;;30.00;54.20;;;;;;6163264;23;20020;-74
2022/09/13 16:17:20;;;;;;;3.95;1.23;;;29.80;54.90;;;;;;6164195;23;20287;-73
2022/09/13 16:19:46;;;;;;;5.50;1.15;;;29.50;56.40;;;;;;6163476;23;20049;-73
2022/09/13 16:22:12;;;;;;;2.78;1.13;;;29.40;56.50;;;;;;6164137;23;20148;-74
2022/09/13 16:24:38;;;;;;;3.28;0.82;;;29.30;57.30;;;;;;6163407;23;20231;-73
2022/09/13 16:27:04;;;;;;;3.72;0.80;;;29.20;57.50;;;;;;6164594;23;20223;-73
2022/09/13 16:29:30;;;;;;;5.07;0.82;;;29.20;57.60;;;;;;6165329;23;20066;-74
2022/09/13 16:31:58;;;;;;;2.20;0.65;;;29.20;57.70;;;;;;6164404;23;20002;-75
2022/09/13 16:34:24;;;;;;;2.70;0.80;;;29.10;58.30;;;;;;6165971;23;19998;-75
2022/09/13 16:36:50;;;;;;;2.05;0.90;;;29.10;58.70;;;;;;6165392;23;20114;-74
2022/09/13 16:39:16;;;;;;;3.17;0.98;;;29.10;58.90;;;;;;6166119;23;19997;-74
2022/09/13 16:41:42;;;;;;;3.75;0.80;;;29.00;59.00;;;;;;6165274;23;20044;-74
2022/09/13 16:44:08;;;;;;;2.20;0.98;;;29.00;59.10;;;;;;6165834;23;20219;-74
2022/09/13 16:46:34;;;;;;;4.15;0.73;;;28.90;58.90;;;;;;6165099;23;20005;-74
2022/09/13 16:49:00;;;;;;;1.60;0.70;;;28.90;59.50;;;;;;6166167;23;20005;-73
2022/09/13 16:51:26;;;;;;;2.20;0.80;;;28.80;59.20;;;;;;6139967;23;20052;-74
2022/09/13 16:53:53;;;;;;;1.27;0.60;;;28.60;58.70;;;;;;6164907;23;20244;-75
2022/09/13 16:56:22;;;;;;;2.40;0.90;;;28.40;59.40;;;;;;6139702;23;20009;-74
2022/09/13 16:58:48;;;;;;;2.65;0.75;;;28.40;60.00;;;;;;6163882;23;20498;-74
2022/09/13 17:01:20;;;;;;;3.47;1.20;;;28.30;59.80;;;;;;6165194;23;20033;-74
2022/09/13 17:03:46;;;;;;;2.90;1.15;;;28.30;59.60;;;;;;6164742;23;20306;-73
2022/09/13 17:06:15;;;;;;;5.10;1.63;;;28.10;60.40;;;;;;6165279;23;20001;-73
2022/09/13 17:08:44;;;;;;;;;;;27.90;60.10;;;;;;6165926;23;20009;-75
2022/09/13 17:11:12;;;;;;;3.97;1.30;;;27.90;60.00;;;;;;6139635;23;19904;-75
2022/09/13 17:13:39;;;;;;;3.30;1.10;;;27.70;60.50;;;;;;6165406;23;19993;-75
2022/09/13 17:16:17;;;;;;;15.15;13.52;;;27.70;60.90;;;;;;6165786;23;20008;-77
2022/09/13 17:18:43;;;;;;;5.50;3.87;;;27.70;61.00;;;;;;6138883;23;20375;-75
2022/09/13 17:21:08;;;;;;;5.10;2.15;;;27.60;60.50;;;;;;6139923;23;20002;-75
2022/09/13 17:23:34;;;;;;;3.95;1.48;;;27.50;61.00;;;;;;6165107;23;20012;-76
2022/09/13 17:26:00;;;;;;;2.85;1.50;;;27.50;60.80;;;;;;6164921;23;20023;-75
2022/09/13 17:28:26;;;;;;;4.45;1.40;;;27.20;59.60;;;;;;6164980;23;20057;-75
2022/09/13 17:30:52;;;;;;;4.90;2.80;;;27.20;60.90;;;;;;6163030;23;20002;-75
2022/09/13 17:33:18;;;;;;;3.13;1.50;;;27.10;60.40;;;;;;6164888;23;20322;-75
2022/09/13 17:35:43;;;;;;;2.63;1.00;;;27.00;60.60;;;;;;6164893;23;20013;-75
2022/09/13 17:38:10;;;;;;;3.42;1.20;;;26.90;59.70;;;;;;6164942;23;20267;-74
2022/09/13 17:40:36;;;;;;;2.55;1.00;;;26.80;60.50;;;;;;6164816;23;20187;-74
2022/09/13 17:43:02;;;;;;;2.90;1.35;;;26.70;60.60;;;;;;6165384;23;20021;-76
2022/09/13 17:45:28;;;;;;;4.55;1.73;;;26.60;60.90;;;;;;6164975;23;20009;-74
2022/09/13 17:47:55;;;;;;;3.67;1.60;;;26.50;61.80;;;;;;6138752;23;19999;-76
2022/09/13 17:50:22;;;;;;;3.00;1.27;;;26.50;61.90;;;;;;6165623;23;20001;-74
2022/09/13 17:52:50;;;;;;;3.15;1.67;;;26.40;62.10;;;;;;6138628;23;20012;-75
2022/09/13 17:55:16;;;;;;;3.58;2.00;;;26.20;62.30;;;;;;6139090;23;20306;-76
2022/09/13 17:57:42;;;;;;;3.67;1.88;;;26.00;63.00;;;;;;6138037;23;20024;-75
2022/09/13 18:00:12;;;;;;;3.78;1.80;;;25.80;63.50;;;;;;6164886;23;20215;-75
2022/09/13 18:02:38;;;;;;;4.38;2.00;;;25.60;64.20;;;;;;6137949;23;20006;-75
2022/09/13 18:05:04;;;;;;;3.60;1.85;;;25.50;64.60;;;;;;6139416;23;20084;-75
2022/09/13 18:07:30;;;;;;;4.72;2.38;;;25.40;65.10;;;;;;6164888;23;20013;-75
2022/09/13 18:09:55;;;;;;;5.97;2.10;;;25.40;65.20;;;;;;6163962;23;19998;-75
2022/09/13 18:12:21;;;;;;;5.32;2.25;;;25.30;65.30;;;;;;6165370;23;19997;-74
2022/09/13 18:14:47;;;;;;;5.10;1.90;;;25.20;65.70;;;;;;6164655;23;20008;-75
2022/09/13 18:17:12;;;;;;;4.65;2.40;;;25.10;66.40;;;;;;6139157;23;20056;-75
2022/09/13 18:19:41;;;;;;;5.43;3.72;;;25.00;66.30;;;;;;6164471;23;20002;-75
2022/09/13 18:22:08;;;;;;;5.32;3.78;;;25.00;67.10;;;;;;6165233;23;20028;-75
2022/09/13 18:24:34;;;;;;;6.85;3.95;;;24.80;67.40;;;;;;6164062;23;20073;-74
2022/09/13 18:27:01;;;;;;;13.45;10.25;;;24.70;67.80;;;;;;6164856;23;20164;-75
2022/09/13 18:29:31;;;;;;;14.23;10.32;;;24.60;68.80;;;;;;6164725;23;20239;-73
2022/09/13 18:31:57;;;;;;;6.35;4.18;;;24.50;68.70;;;;;;6163842;23;20227;-74